createdAt,value
2022-12-26T09:02:24.887Z,3.03
2022-12-26T09:48:42.222Z,3.95
2022-12-26T09:58:14.268Z,3.92
2022-12-26T10:01:12.392Z,3.47
2022-12-26T10:07:24.455Z,3.90
2022-12-26T10:13:55.359Z,5.03
2022-12-26T10:16:49.049Z,4.75
2022-12-26T10:20:06.923Z,3.80
2022-12-26T10:24:49.789Z,3.35
2022-12-26T10:27:28.445Z,3.83
2022-12-26T10:30:20.187Z,3.40
2022-12-26T10:34:03.506Z,3.92
2022-12-26T10:36:54.378Z,3.15
2022-12-26T10:39:42.296Z,5.47
2022-12-26T10:42:32.232Z,3.63
2022-12-26T10:45:29.153Z,3.42
2022-12-26T10:50:12.145Z,3.67
2022-12-26T10:51:43.327Z,3.78
2022-12-26T10:54:36.023Z,3.42
2022-12-26T10:57:21.336Z,3.50
2022-12-26T11:00:17.735Z,3.97
2022-12-26T11:21:41.784Z,2.35
2022-12-26T11:24:47.090Z,2.10
2022-12-26T11:35:19.938Z,2.60
2022-12-26T11:42:18.847Z,2.10
2022-12-26T11:45:32.801Z,1.90
2022-12-26T11:52:34.434Z,2.00
2022-12-26T11:56:24.948Z,2.22
2022-12-26T11:59:04.243Z,2.08
2022-12-26T12:01:54.224Z,1.67
2022-12-26T12:08:38.763Z,1.65
2022-12-26T12:11:37.159Z,1.60
2022-12-26T12:14:22.458Z,1.98
2022-12-26T12:17:04.622Z,2.00
2022-12-26T12:19:45.216Z,1.40
2022-12-26T12:22:56.010Z,1.67
2022-12-26T12:25:56.483Z,2.10
2022-12-26T12:28:56.964Z,2.10
2022-12-26T12:31:54.344Z,2.20
2022-12-26T12:34:41.652Z,1.60
2022-12-26T12:37:43.816Z,2.00
2022-12-26T12:40:39.564Z,1.83
2022-12-26T12:43:29.570Z,1.60
2022-12-26T12:46:23.536Z,1.75
2022-12-26T12:49:09.047Z,1.70
2022-12-26T12:51:49.989Z,1.63
2022-12-26T12:54:58.201Z,1.70
2022-12-26T12:57:36.092Z,1.83
2022-12-26T13:00:15.525Z,1.83
2022-12-26T13:03:03.301Z,2.00
2022-12-26T13:05:52.888Z,1.58
2022-12-26T13:08:36.564Z,1.80
2022-12-26T13:11:14.295Z,2.53
2022-12-26T13:13:53.663Z,2.45
2022-12-26T13:16:50.365Z,2.60
2022-12-26T13:19:42.129Z,2.38
2022-12-26T13:22:28.196Z,2.10
2022-12-26T13:25:00.124Z,2.95
2022-12-26T13:27:35.803Z,3.03
2022-12-26T13:30:09.517Z,2.60
2022-12-26T13:35:46.419Z,2.08
2022-12-26T13:38:16.619Z,2.65
2022-12-26T13:40:48.688Z,2.17
2022-12-26T13:43:48.824Z,3.25
2022-12-26T13:46:40.354Z,2.40
2022-12-26T13:49:39.251Z,2.53
2022-12-26T13:52:36.589Z,2.20
2022-12-26T13:55:33.312Z,2.40
2022-12-26T13:58:18.172Z,2.40
2022-12-26T14:00:48.214Z,2.28
2022-12-26T14:03:38.851Z,3.05
2022-12-26T14:06:22.435Z,8.52
2022-12-26T14:09:10.588Z,5.25
2022-12-26T14:11:55.289Z,3.72
2022-12-26T14:14:33.950Z,2.88
2022-12-26T14:17:16.976Z,3.15
2022-12-26T14:19:50.053Z,2.50
2022-12-26T14:22:25.010Z,2.90
2022-12-26T14:25:03.158Z,3.20
2022-12-26T14:27:38.874Z,2.85
2022-12-26T14:30:09.867Z,3.10
2022-12-26T14:32:42.710Z,5.68
2022-12-26T14:35:27.391Z,3.77
2022-12-26T14:38:18.214Z,3.15
2022-12-26T14:41:10.436Z,4.90
2022-12-26T14:43:58.242Z,4.53
2022-12-26T14:46:51.091Z,3.83
2022-12-26T14:52:49.207Z,3.47
2022-12-26T14:56:08.401Z,3.63
2022-12-26T14:58:45.093Z,2.95
2022-12-26T15:01:45.804Z,2.97
2022-12-26T15:04:50.444Z,2.88
2022-12-26T15:07:56.672Z,3.45
2022-12-26T15:10:52.261Z,3.00
2022-12-26T15:14:01.880Z,2.90
2022-12-26T17:57:52.505Z,1.70
2022-12-26T18:00:22.629Z,1.73
2022-12-26T18:03:12.138Z,1.75
2022-12-26T18:05:59.699Z,1.23
